EDMO

Oberpfaffenhofen Airport

Germany
METAR EDMO 211750Z 31004KT CAVOK 23/06 Q1018
Observed Flight Rules
Apr-21 @ 17:50 UTC (13 hours ago) Visual Flight Rules
Wind Visibility Clouds
310° at 4 knots 10,000+ meters
  • Clear skies
Temperatures Readings
Current 23°C / 73°F
Dewpoint 6°C / 43°F
Humidity 33%
Altimeter 30.06" Hg
Pressure 1018 hPa
Elevation 600
METAR EDMO 211750Z 31004KT CAVOK 23/06 Q1018
Observed Flight Rules
Apr-21 @ 17:50 UTC
(13 hours ago)
VFR
Wind Visibility
310° at 4 knots 10,000+ meters
Clouds
  • Clear skies
Temperature Dewpoint
23°C / 73°F 6°C / 43°F
Humidity Altimeter Pressure
33% 30.06" Hg 1018 hPa